sensor_id;sensor_type;location;lat;lon;timestamp;pressure;altitude;pressure_sealevel;temperature;humidity
34370;BME280;20635;55.812;37.560;2023-03-20T00:02:51;99919.69;;;24.30;23.83
34370;BME280;20635;55.812;37.560;2023-03-20T00:05:18;99916.88;;;24.30;23.83
34370;BME280;20635;55.812;37.560;2023-03-20T00:07:46;99923.31;;;24.30;23.94
34370;BME280;20635;55.812;37.560;2023-03-20T00:10:12;99917.72;;;24.30;24.07
34370;BME280;20635;55.812;37.560;2023-03-20T00:12:38;99918.00;;;24.29;23.81
34370;BME280;20635;55.812;37.560;2023-03-20T00:15:04;99912.94;;;24.31;23.94
34370;BME280;20635;55.812;37.560;2023-03-20T00:17:31;99913.75;;;24.32;24.03
34370;BME280;20635;55.812;37.560;2023-03-20T00:19:57;99917.38;;;24.32;23.98
34370;BME280;20635;55.812;37.560;2023-03-20T00:22:22;99920.19;;;24.32;23.94
34370;BME280;20635;55.812;37.560;2023-03-20T00:24:48;99915.41;;;24.33;24.04
34370;BME280;20635;55.812;37.560;2023-03-20T00:27:15;99922.66;;;24.34;23.86
34370;BME280;20635;55.812;37.560;2023-03-20T00:29:40;99921.81;;;24.33;23.97
34370;BME280;20635;55.812;37.560;2023-03-20T00:32:09;99910.94;;;24.32;23.84
34370;BME280;20635;55.812;37.560;2023-03-20T00:34:36;99910.63;;;24.33;24.05
34370;BME280;20635;55.812;37.560;2023-03-20T00:37:02;99905.84;;;24.34;24.11
34370;BME280;20635;55.812;37.560;2023-03-20T00:39:28;99898.28;;;24.34;23.97
34370;BME280;20635;55.812;37.560;2023-03-20T00:41:57;99906.66;;;24.34;24.13
34370;BME280;20635;55.812;37.560;2023-03-20T00:44:26;99906.66;;;24.34;23.99
34370;BME280;20635;55.812;37.560;2023-03-20T00:46:56;99899.13;;;24.35;23.86
34370;BME280;20635;55.812;37.560;2023-03-20T00:49:27;99897.16;;;24.35;23.97
34370;BME280;20635;55.812;37.560;2023-03-20T00:51:53;99901.59;;;24.36;23.89
34370;BME280;20635;55.812;37.560;2023-03-20T00:54:19;99899.94;;;24.35;23.75
34370;BME280;20635;55.812;37.560;2023-03-20T00:56:47;99901.59;;;24.36;23.87
34370;BME280;20635;55.812;37.560;2023-03-20T00:59:16;99901.59;;;24.36;23.81
34370;BME280;20635;55.812;37.560;2023-03-20T01:01:43;99901.59;;;24.36;23.95
34370;BME280;20635;55.812;37.560;2023-03-20T01:04:17;99901.59;;;24.36;24.12
34370;BME280;20635;55.812;37.560;2023-03-20T01:06:43;99896.84;;;24.37;24.12
34370;BME280;20635;55.812;37.560;2023-03-20T01:09:09;99901.28;;;24.38;23.96
34370;BME280;20635;55.812;37.560;2023-03-20T01:11:35;99901.28;;;24.38;24.05
34370;BME280;20635;55.812;37.560;2023-03-20T01:14:01;99896.50;;;24.38;24.03
34370;BME280;20635;55.812;37.560;2023-03-20T01:16:27;99896.50;;;24.38;24.08
34370;BME280;20635;55.812;37.560;2023-03-20T01:18:53;99893.72;;;24.38;24.14
34370;BME280;20635;55.812;37.560;2023-03-20T01:21:20;99890.91;;;24.38;23.86
34370;BME280;20635;55.812;37.560;2023-03-20T01:23:46;99887.28;;;24.38;23.90
34370;BME280;20635;55.812;37.560;2023-03-20T01:26:23;99888.09;;;24.38;24.12
34370;BME280;20635;55.812;37.560;2023-03-20T01:28:52;99893.41;;;24.40;23.80
34370;BME280;20635;55.812;37.560;2023-03-20T01:31:18;99881.38;;;24.39;24.14
34370;BME280;20635;55.812;37.560;2023-03-20T01:33:44;99882.22;;;24.40;24.05
34370;BME280;20635;55.812;37.560;2023-03-20T01:36:14;99886.66;;;24.41;24.13
34370;BME280;20635;55.812;37.560;2023-03-20T01:38:42;99883.84;;;24.41;24.08
34370;BME280;20635;55.812;37.560;2023-03-20T01:41:12;99881.06;;;24.41;24.13
34370;BME280;20635;55.812;37.560;2023-03-20T01:43:39;99881.88;;;24.41;24.19
34370;BME280;20635;55.812;37.560;2023-03-20T01:46:16;99876.28;;;24.41;24.04
34370;BME280;20635;55.812;37.560;2023-03-20T01:51:16;99886.31;;;24.42;24.11
34370;BME280;20635;55.812;37.560;2023-03-20T01:53:42;99871.50;;;24.42;24.00
34370;BME280;20635;55.812;37.560;2023-03-20T01:56:10;99875.13;;;24.42;24.00
34370;BME280;20635;55.812;37.560;2023-03-20T01:58:43;99867.25;;;24.44;23.97
34370;BME280;20635;55.812;37.560;2023-03-20T02:03:36;99865.56;;;24.43;23.88
34370;BME280;20635;55.812;37.560;2023-03-20T02:06:20;99861.63;;;24.44;24.05
34370;BME280;20635;55.812;37.560;2023-03-20T02:09:26;99861.63;;;24.44;24.01
34370;BME280;20635;55.812;37.560;2023-03-20T02:11:52;99857.69;;;24.45;24.02
34370;BME280;20635;55.812;37.560;2023-03-20T02:14:19;99856.84;;;24.45;24.12
34370;BME280;20635;55.812;37.560;2023-03-20T02:17:02;99858.50;;;24.46;23.92
34370;BME280;20635;55.812;37.560;2023-03-20T02:22:28;99847.28;;;24.46;24.12
34370;BME280;20635;55.812;37.560;2023-03-20T02:27:43;99858.16;;;24.47;24.00
34370;BME280;20635;55.812;37.560;2023-03-20T02:43:48;99842.19;;;24.48;23.95
34370;BME280;20635;55.812;37.560;2023-03-20T02:54:45;99827.34;;;24.47;24.04
34370;BME280;20635;55.812;37.560;2023-03-20T02:57:18;99823.44;;;24.48;23.87
34370;BME280;20635;55.812;37.560;2023-03-20T03:02:21;99825.06;;;24.49;23.96
34370;BME280;20635;55.812;37.560;2023-03-20T03:04:51;99821.44;;;24.49;23.87
34370;BME280;20635;55.812;37.560;2023-03-20T03:07:19;99813.88;;;24.49;24.04
34370;BME280;20635;55.812;37.560;2023-03-20T03:12:14;99816.66;;;24.49;23.79
34370;BME280;20635;55.812;37.560;2023-03-20T03:14:43;99811.88;;;24.50;23.93
34370;BME280;20635;55.812;37.560;2023-03-20T03:17:14;99819.47;;;24.49;24.01
34370;BME280;20635;55.812;37.560;2023-03-20T03:19:43;99805.13;;;24.51;24.05
34370;BME280;20635;55.812;37.560;2023-03-20T03:22:12;99810.72;;;24.51;23.97
34370;BME280;20635;55.812;37.560;2023-03-20T03:24:44;99809.09;;;24.50;23.95
34370;BME280;20635;55.812;37.560;2023-03-20T03:27:33;99812.38;;;24.52;23.97
34370;BME280;20635;55.812;37.560;2023-03-20T03:30:01;99808.75;;;24.51;23.94
34370;BME280;20635;55.812;37.560;2023-03-20T03:32:32;99803.97;;;24.52;24.17
34370;BME280;20635;55.812;37.560;2023-03-20T03:34:59;99798.38;;;24.52;23.98
34370;BME280;20635;55.812;37.560;2023-03-20T03:37:28;99794.75;;;24.51;24.23
34370;BME280;20635;55.812;37.560;2023-03-20T03:40:00;99797.25;;;24.53;24.24
34370;BME280;20635;55.812;37.560;2023-03-20T03:42:46;99802.00;;;24.52;23.84
34370;BME280;20635;55.812;37.560;2023-03-20T03:45:17;99796.38;;;24.52;23.96
34370;BME280;20635;55.812;37.560;2023-03-20T03:47:44;99800.03;;;24.53;23.98
34370;BME280;20635;55.812;37.560;2023-03-20T03:50:13;99798.06;;;24.53;24.03
34370;BME280;20635;55.812;37.560;2023-03-20T03:52:40;99798.06;;;24.53;24.15
34370;BME280;20635;55.812;37.560;2023-03-20T03:55:09;99788.50;;;24.54;24.03
34370;BME280;20635;55.812;37.560;2023-03-20T03:57:40;99790.47;;;24.54;24.08
34370;BME280;20635;55.812;37.560;2023-03-20T04:00:10;99791.31;;;24.54;24.14
34370;BME280;20635;55.812;37.560;2023-03-20T04:02:41;99796.91;;;24.54;23.86
34370;BME280;20635;55.812;37.560;2023-03-20T04:05:08;99784.53;;;24.55;24.17
34370;BME280;20635;55.812;37.560;2023-03-20T04:07:36;99789.31;;;24.55;24.03
34370;BME280;20635;55.812;37.560;2023-03-20T04:10:03;99792.94;;;24.55;24.12
34370;BME280;20635;55.812;37.560;2023-03-20T04:12:33;99793.78;;;24.56;24.13
34370;BME280;20635;55.812;37.560;2023-03-20T04:15:00;99792.63;;;24.57;23.94
34370;BME280;20635;55.812;37.560;2023-03-20T04:17:26;99803.81;;;24.57;24.10
34370;BME280;20635;55.812;37.560;2023-03-20T04:19:52;99789.00;;;24.57;24.14
34370;BME280;20635;55.812;37.560;2023-03-20T04:22:18;99783.38;;;24.57;23.94
34370;BME280;20635;55.812;37.560;2023-03-20T04:24:43;99783.09;;;24.58;23.91
34370;BME280;20635;55.812;37.560;2023-03-20T04:27:09;99783.09;;;24.58;23.96
34370;BME280;20635;55.812;37.560;2023-03-20T04:29:37;99778.31;;;24.59;24.00
34370;BME280;20635;55.812;37.560;2023-03-20T04:32:32;99772.69;;;24.59;24.09
34370;BME280;20635;55.812;37.560;2023-03-20T04:35:14;99782.75;;;24.60;24.03
34370;BME280;20635;55.812;37.560;2023-03-20T04:37:54;99770.72;;;24.59;23.97
34370;BME280;20635;55.812;37.560;2023-03-20T04:40:20;99772.34;;;24.60;23.95
34370;BME280;20635;55.812;37.560;2023-03-20T04:42:46;99773.19;;;24.61;23.91
34370;BME280;20635;55.812;37.560;2023-03-20T04:45:12;99770.38;;;24.61;24.16
34370;BME280;20635;55.812;37.560;2023-03-20T04:47:38;99768.41;;;24.61;24.16
34370;BME280;20635;55.812;37.560;2023-03-20T04:50:05;99773.19;;;24.61;23.84
34370;BME280;20635;55.812;37.560;2023-03-20T04:52:31;99772.03;;;24.62;23.83
34370;BME280;20635;55.812;37.560;2023-03-20T04:54:57;99772.03;;;24.62;23.88
34370;BME280;20635;55.812;37.560;2023-03-20T04:57:23;99773.69;;;24.63;24.12
34370;BME280;20635;55.812;37.560;2023-03-20T04:59:49;99770.91;;;24.63;23.93
34370;BME280;20635;55.812;37.560;2023-03-20T05:02:16;99783.75;;;24.64;23.83
34370;BME280;20635;55.812;37.560;2023-03-20T05:04:43;99778.16;;;24.64;23.82
34370;BME280;20635;55.812;37.560;2023-03-20T05:07:09;99776.97;;;24.65;23.93
34370;BME280;20635;55.812;37.560;2023-03-20T05:09:47;99776.66;;;24.66;23.79
34370;BME280;20635;55.812;37.560;2023-03-20T05:12:13;99780.31;;;24.67;23.78
34370;BME280;20635;55.812;37.560;2023-03-20T05:15:11;99787.84;;;24.66;23.76
34370;BME280;20635;55.812;37.560;2023-03-20T05:18:00;99787.56;;;24.68;23.83
34370;BME280;20635;55.812;37.560;2023-03-20T05:20:43;99781.13;;;24.67;23.77
34370;BME280;20635;55.812;37.560;2023-03-20T05:23:29;99780.78;;;24.69;24.09
34370;BME280;20635;55.812;37.560;2023-03-20T05:26:21;99786.41;;;24.69;23.80
34370;BME280;20635;55.812;37.560;2023-03-20T05:29:05;99785.25;;;24.70;23.73
34370;BME280;20635;55.812;37.560;2023-03-20T05:32:00;99787.72;;;24.71;23.78
34370;BME280;20635;55.812;37.560;2023-03-20T05:34:38;99779.31;;;24.71;23.92
34370;BME280;20635;55.812;37.560;2023-03-20T05:37:10;99784.59;;;24.73;24.12
34370;BME280;20635;55.812;37.560;2023-03-20T05:40:02;99780.16;;;24.72;24.00
34370;BME280;20635;55.812;37.560;2023-03-20T05:42:30;99786.25;;;24.74;23.77
34370;BME280;20635;55.812;37.560;2023-03-20T05:45:14;99780.63;;;24.74;23.74
34370;BME280;20635;55.812;37.560;2023-03-20T05:48:07;99788.75;;;24.75;23.93
34370;BME280;20635;55.812;37.560;2023-03-20T05:50:53;99785.09;;;24.75;23.74
34370;BME280;20635;55.812;37.560;2023-03-20T05:53:32;99779.16;;;24.76;23.96
34370;BME280;20635;55.812;37.560;2023-03-20T05:56:30;99791.19;;;24.77;23.75
34370;BME280;20635;55.812;37.560;2023-03-20T05:59:10;99788.88;;;24.79;23.86
34370;BME280;20635;55.812;37.560;2023-03-20T06:02:11;99784.97;;;24.80;23.92
34370;BME280;20635;55.812;37.560;2023-03-20T06:04:42;99793.38;;;24.80;23.78
34370;BME280;20635;55.812;37.560;2023-03-20T06:07:28;99792.19;;;24.81;24.11
34370;BME280;20635;55.812;37.560;2023-03-20T06:10:08;99798.63;;;24.82;23.93
34370;BME280;20635;55.812;37.560;2023-03-20T06:12:35;99800.28;;;24.83;23.92
34370;BME280;20635;55.812;37.560;2023-03-20T06:15:01;99796.31;;;24.84;23.99
34370;BME280;20635;55.812;37.560;2023-03-20T06:17:29;99789.88;;;24.83;23.74
34370;BME280;20635;55.812;37.560;2023-03-20T06:20:02;99796.00;;;24.85;23.95
34370;BME280;20635;55.812;37.560;2023-03-20T06:22:29;99776.38;;;24.85;24.12
34370;BME280;20635;55.812;37.560;2023-03-20T06:24:55;99776.38;;;24.85;23.75
34370;BME280;20635;55.812;37.560;2023-03-20T06:27:26;99778.03;;;24.86;23.88
34370;BME280;20635;55.812;37.560;2023-03-20T06:29:52;99776.88;;;24.87;23.71
34370;BME280;20635;55.812;37.560;2023-03-20T06:32:25;99780.50;;;24.88;23.79
34370;BME280;20635;55.812;37.560;2023-03-20T06:34:54;99781.00;;;24.90;23.92
34370;BME280;20635;55.812;37.560;2023-03-20T06:37:20;99768.97;;;24.89;23.93
34370;BME280;20635;55.812;37.560;2023-03-20T06:39:46;99770.63;;;24.90;23.93
34370;BME280;20635;55.812;37.560;2023-03-20T06:42:13;99774.25;;;24.91;23.71
34370;BME280;20635;55.812;37.560;2023-03-20T06:44:40;99767.47;;;24.92;23.91
34370;BME280;20635;55.812;37.560;2023-03-20T06:47:13;99766.31;;;24.93;23.98
34370;BME280;20635;55.812;37.560;2023-03-20T06:49:39;99769.13;;;24.93;23.96
34370;BME280;20635;55.812;37.560;2023-03-20T06:52:06;99777.22;;;24.94;23.97
34370;BME280;20635;55.812;37.560;2023-03-20T06:54:34;99769.63;;;24.95;23.90
34370;BME280;20635;55.812;37.560;2023-03-20T06:56:59;99772.44;;;24.95;23.80
34370;BME280;20635;55.812;37.560;2023-03-20T06:59:25;99770.47;;;24.95;23.83
34370;BME280;20635;55.812;37.560;2023-03-20T07:01:55;99759.25;;;24.95;24.04
34370;BME280;20635;55.812;37.560;2023-03-20T07:04:21;99761.72;;;24.97;23.96
34370;BME280;20635;55.812;37.560;2023-03-20T07:06:51;99763.69;;;24.96;23.81
34370;BME280;20635;55.812;37.560;2023-03-20T07:09:16;99756.94;;;24.97;23.96
34370;BME280;20635;55.812;37.560;2023-03-20T07:11:43;99757.75;;;24.98;23.87
34370;BME280;20635;55.812;37.560;2023-03-20T07:14:10;99757.75;;;24.98;23.94
34370;BME280;20635;55.812;37.560;2023-03-20T07:16:57;99754.94;;;24.98;23.93
34370;BME280;20635;55.812;37.560;2023-03-20T07:19:23;99755.78;;;24.98;24.02
34370;BME280;20635;55.812;37.560;2023-03-20T07:21:55;99752.13;;;24.98;23.82
34370;BME280;20635;55.812;37.560;2023-03-20T07:24:22;99751.81;;;24.99;23.85
34370;BME280;20635;55.812;37.560;2023-03-20T07:26:48;99755.78;;;24.98;23.97
34370;BME280;20635;55.812;37.560;2023-03-20T07:29:14;99750.19;;;24.98;23.68
34370;BME280;20635;55.812;37.560;2023-03-20T07:31:41;99741.78;;;24.98;23.84
34370;BME280;20635;55.812;37.560;2023-03-20T07:34:13;99748.19;;;24.99;24.04
34370;BME280;20635;55.812;37.560;2023-03-20T07:36:40;99740.63;;;24.99;23.84
34370;BME280;20635;55.812;37.560;2023-03-20T07:39:07;99749.03;;;24.99;23.84
34370;BME280;20635;55.812;37.560;2023-03-20T07:41:35;99742.59;;;24.99;24.01
34370;BME280;20635;55.812;37.560;2023-03-20T07:44:04;99743.41;;;24.99;23.81
34370;BME280;20635;55.812;37.560;2023-03-20T07:47:01;99744.25;;;25.00;23.96
34370;BME280;20635;55.812;37.560;2023-03-20T07:49:27;99746.22;;;24.99;23.91
34370;BME280;20635;55.812;37.560;2023-03-20T07:51:52;99734.19;;;24.99;23.89
34370;BME280;20635;55.812;37.560;2023-03-20T07:54:19;99744.25;;;25.00;23.89
34370;BME280;20635;55.812;37.560;2023-03-20T07:56:45;99737.81;;;24.99;23.92
34370;BME280;20635;55.812;37.560;2023-03-20T07:59:11;99737.81;;;24.99;23.95
34370;BME280;20635;55.812;37.560;2023-03-20T08:01:37;99743.41;;;24.99;24.00
34370;BME280;20635;55.812;37.560;2023-03-20T08:04:03;99735.00;;;24.99;23.84
34370;BME280;20635;55.812;37.560;2023-03-20T08:06:28;99737.81;;;24.99;23.92
34370;BME280;20635;55.812;37.560;2023-03-20T08:08:54;99728.25;;;25.00;23.91
34370;BME280;20635;55.812;37.560;2023-03-20T08:11:20;99722.63;;;25.00;23.78
34370;BME280;20635;55.812;37.560;2023-03-20T08:13:46;99726.25;;;25.01;23.92
34370;BME280;20635;55.812;37.560;2023-03-20T08:16:11;99720.66;;;25.01;24.00
34370;BME280;20635;55.812;37.560;2023-03-20T08:18:37;99720.66;;;25.01;23.90
34370;BME280;20635;55.812;37.560;2023-03-20T08:21:03;99719.00;;;25.00;23.81
34370;BME280;20635;55.812;37.560;2023-03-20T08:23:29;99726.25;;;25.01;23.96
34370;BME280;20635;55.812;37.560;2023-03-20T08:25:55;99721.47;;;25.01;23.92
34370;BME280;20635;55.812;37.560;2023-03-20T08:28:21;99714.69;;;25.02;24.02
34370;BME280;20635;55.812;37.560;2023-03-20T08:30:47;99724.28;;;25.01;23.89
34370;BME280;20635;55.812;37.560;2023-03-20T08:33:13;99717.50;;;25.02;23.88
34370;BME280;20635;55.812;37.560;2023-03-20T08:35:39;99717.50;;;25.02;23.84
34370;BME280;20635;55.812;37.560;2023-03-20T08:38:05;99709.09;;;25.02;24.02
34370;BME280;20635;55.812;37.560;2023-03-20T08:40:31;99711.91;;;25.02;24.01
34370;BME280;20635;55.812;37.560;2023-03-20T08:42:57;99705.97;;;25.04;23.96
34370;BME280;20635;55.812;37.560;2023-03-20T08:45:23;99706.28;;;25.02;23.92
34370;BME280;20635;55.812;37.560;2023-03-20T08:47:50;99701.53;;;25.03;23.80
34370;BME280;20635;55.812;37.560;2023-03-20T08:50:16;99701.19;;;25.04;23.70
34370;BME280;20635;55.812;37.560;2023-03-20T08:52:42;99697.56;;;25.04;23.78
34370;BME280;20635;55.812;37.560;2023-03-20T08:55:09;99704.00;;;25.04;24.00
34370;BME280;20635;55.812;37.560;2023-03-20T08:57:35;99701.19;;;25.04;23.96
34370;BME280;20635;55.812;37.560;2023-03-20T09:00:03;99693.94;;;25.03;23.82
34370;BME280;20635;55.812;37.560;2023-03-20T09:02:29;99690.81;;;25.05;23.83
34370;BME280;20635;55.812;37.560;2023-03-20T09:04:54;99698.41;;;25.04;23.82
34370;BME280;20635;55.812;37.560;2023-03-20T09:07:20;99693.59;;;25.05;24.01
34370;BME280;20635;55.812;37.560;2023-03-20T09:09:46;99697.22;;;25.05;23.84
34370;BME280;20635;55.812;37.560;2023-03-20T09:12:12;99699.22;;;25.05;23.64
34370;BME280;20635;55.812;37.560;2023-03-20T09:14:38;99694.78;;;25.04;23.88
34370;BME280;20635;55.812;37.560;2023-03-20T09:17:04;99695.59;;;25.04;23.94
34370;BME280;20635;55.812;37.560;2023-03-20T09:19:30;99688.00;;;25.05;23.77
34370;BME280;20635;55.812;37.560;2023-03-20T09:21:56;99688.00;;;25.05;23.75
34370;BME280;20635;55.812;37.560;2023-03-20T09:24:22;99677.94;;;25.04;23.85
34370;BME280;20635;55.812;37.560;2023-03-20T09:26:48;99678.75;;;25.04;23.87
34370;BME280;20635;55.812;37.560;2023-03-20T09:29:15;99686.00;;;25.05;23.97
34370;BME280;20635;55.812;37.560;2023-03-20T09:31:40;99677.59;;;25.05;23.86
34370;BME280;20635;55.812;37.560;2023-03-20T09:34:06;99671.19;;;25.05;23.93
34370;BME280;20635;55.812;37.560;2023-03-20T09:36:32;99668.38;;;25.05;23.83
34370;BME280;20635;55.812;37.560;2023-03-20T09:38:58;99675.63;;;25.06;23.64
34370;BME280;20635;55.812;37.560;2023-03-20T09:41:24;99663.59;;;25.05;23.91
34370;BME280;20635;55.812;37.560;2023-03-20T09:44:08;99667.22;;;25.06;23.91
34370;BME280;20635;55.812;37.560;2023-03-20T09:51:47;99650.13;;;25.08;23.80
34370;BME280;20635;55.812;37.560;2023-03-20T09:56:44;99647.31;;;25.08;23.87
34370;BME280;20635;55.812;37.560;2023-03-20T09:59:10;99644.97;;;25.10;23.76
34370;BME280;20635;55.812;37.560;2023-03-20T10:01:43;99638.56;;;25.09;23.68
34370;BME280;20635;55.812;37.560;2023-03-20T10:04:10;99641.00;;;25.11;23.88
34370;BME280;20635;55.812;37.560;2023-03-20T10:06:36;99643.81;;;25.11;23.62
34370;BME280;20635;55.812;37.560;2023-03-20T10:09:05;99636.22;;;25.11;23.90
34370;BME280;20635;55.812;37.560;2023-03-20T10:11:55;99634.25;;;25.12;23.96
34370;BME280;20635;55.812;37.560;2023-03-20T10:19:43;99617.09;;;25.13;24.00
34370;BME280;20635;55.812;37.560;2023-03-20T10:22:22;99625.19;;;25.15;23.73
34370;BME280;20635;55.812;37.560;2023-03-20T10:24:53;99611.16;;;25.15;23.74
34370;BME280;20635;55.812;37.560;2023-03-20T10:34:56;99612.13;;;25.19;23.67
34370;BME280;20635;55.812;37.560;2023-03-20T10:40:16;99609.84;;;25.21;23.83
34370;BME280;20635;55.812;37.560;2023-03-20T10:42:44;99603.06;;;25.22;23.71
34370;BME280;20635;55.812;37.560;2023-03-20T10:47:56;99592.31;;;25.24;23.74
34370;BME280;20635;55.812;37.560;2023-03-20T10:50:31;99596.47;;;25.26;23.73
34370;BME280;20635;55.812;37.560;2023-03-20T10:53:00;99588.88;;;25.27;23.63
34370;BME280;20635;55.812;37.560;2023-03-20T10:55:27;99586.22;;;25.30;23.69
34370;BME280;20635;55.812;37.560;2023-03-20T10:58:13;99593.94;;;25.34;23.64
34370;BME280;20635;55.812;37.560;2023-03-20T11:00:40;99588.03;;;25.35;23.74
34370;BME280;20635;55.812;37.560;2023-03-20T11:03:06;99580.91;;;25.38;23.71
34370;BME280;20635;55.812;37.560;2023-03-20T11:05:37;99589.47;;;25.41;23.72
34370;BME280;20635;55.812;37.560;2023-03-20T11:08:11;99586.00;;;25.44;23.77
34370;BME280;20635;55.812;37.560;2023-03-20T11:10:38;99581.69;;;25.47;23.58
34370;BME280;20635;55.812;37.560;2023-03-20T11:14:06;99576.25;;;25.50;23.54
34370;BME280;20635;55.812;37.560;2023-03-20T11:16:13;99580.38;;;25.53;23.63
34370;BME280;20635;55.812;37.560;2023-03-20T11:18:41;99575.69;;;25.57;23.49
34370;BME280;20635;55.812;37.560;2023-03-20T11:21:07;99571.41;;;25.60;23.73
34370;BME280;20635;55.812;37.560;2023-03-20T11:23:36;99569.06;;;25.62;23.66
34370;BME280;20635;55.812;37.560;2023-03-20T11:26:03;99568.41;;;25.65;23.57
34370;BME280;20635;55.812;37.560;2023-03-20T11:28:30;99561.31;;;25.67;23.56
34370;BME280;20635;55.812;37.560;2023-03-20T11:30:57;99567.41;;;25.69;23.46
34370;BME280;20635;55.812;37.560;2023-03-20T11:33:24;99556.31;;;25.73;23.62
34370;BME280;20635;55.812;37.560;2023-03-20T11:35:55;99554.19;;;25.78;23.40
34370;BME280;20635;55.812;37.560;2023-03-20T11:38:21;99553.50;;;25.82;23.56
34370;BME280;20635;55.812;37.560;2023-03-20T11:40:46;99550.84;;;25.85;23.46
34370;BME280;20635;55.812;37.560;2023-03-20T11:43:14;99544.22;;;25.90;23.51
34370;BME280;20635;55.812;37.560;2023-03-20T11:45:43;99540.84;;;25.96;23.45
34370;BME280;20635;55.812;37.560;2023-03-20T11:48:16;99535.75;;;25.98;23.38
34370;BME280;20635;55.812;37.560;2023-03-20T11:50:43;99529.91;;;26.03;23.47
34370;BME280;20635;55.812;37.560;2023-03-20T11:53:21;99530.88;;;26.08;23.46
34370;BME280;20635;55.812;37.560;2023-03-20T11:58:31;99529.66;;;26.17;23.36
34370;BME280;20635;55.812;37.560;2023-03-20T12:00:57;99522.19;;;26.21;23.22
34370;BME280;20635;55.812;37.560;2023-03-20T12:06:14;99518.16;;;26.31;23.20
34370;BME280;20635;55.812;37.560;2023-03-20T12:08:42;99510.31;;;26.37;23.12
34370;BME280;20635;55.812;37.560;2023-03-20T12:11:18;99506.47;;;26.41;23.27
34370;BME280;20635;55.812;37.560;2023-03-20T12:13:46;99507.13;;;26.47;23.35
34370;BME280;20635;55.812;37.560;2023-03-20T12:16:14;99508.06;;;26.51;23.22
34370;BME280;20635;55.812;37.560;2023-03-20T12:18:50;99505.41;;;26.54;23.22
34370;BME280;20635;55.812;37.560;2023-03-20T12:21:21;99498.38;;;26.61;22.95
34370;BME280;20635;55.812;37.560;2023-03-20T12:23:52;99496.88;;;26.63;23.07
34370;BME280;20635;55.812;37.560;2023-03-20T12:26:34;99494.22;;;26.67;23.10
34370;BME280;20635;55.812;37.560;2023-03-20T12:29:04;99486.25;;;26.69;23.02
34370;BME280;20635;55.812;37.560;2023-03-20T12:31:38;99489.88;;;26.69;22.95
34370;BME280;20635;55.812;37.560;2023-03-20T12:36:45;99482.63;;;26.68;22.95
34370;BME280;20635;55.812;37.560;2023-03-20T12:39:19;99487.41;;;26.68;23.18
34370;BME280;20635;55.812;37.560;2023-03-20T12:52:14;99461.00;;;26.81;23.04
34370;BME280;20635;55.812;37.560;2023-03-20T13:02:31;99451.88;;;26.96;23.02
34370;BME280;20635;55.812;37.560;2023-03-20T13:07:36;99456.81;;;26.99;23.08
34370;BME280;20635;55.812;37.560;2023-03-20T13:28:19;99434.88;;;26.93;22.98
34370;BME280;20635;55.812;37.560;2023-03-20T13:30:52;99426.78;;;26.91;23.05
34370;BME280;20635;55.812;37.560;2023-03-20T13:38:22;99425.97;;;26.91;22.84
34370;BME280;20635;55.812;37.560;2023-03-20T13:40:54;99422.34;;;26.90;23.16
34370;BME280;20635;55.812;37.560;2023-03-20T13:43:24;99426.34;;;26.89;22.96
34370;BME280;20635;55.812;37.560;2023-03-20T13:45:57;99416.25;;;26.88;22.97
34370;BME280;20635;55.812;37.560;2023-03-20T13:48:28;99417.41;;;26.87;22.67
34370;BME280;20635;55.812;37.560;2023-03-20T13:53:27;99409.34;;;26.86;23.01
34370;BME280;20635;55.812;37.560;2023-03-20T14:03:56;99395.16;;;26.82;23.04
34370;BME280;20635;55.812;37.560;2023-03-20T14:08:53;99386.72;;;26.82;22.87
34370;BME280;20635;55.812;37.560;2023-03-20T14:13:46;99380.97;;;26.78;23.08
34370;BME280;20635;55.812;37.560;2023-03-20T14:16:14;99380.50;;;26.76;22.98
34370;BME280;20635;55.812;37.560;2023-03-20T14:18:40;99380.03;;;26.74;22.84
34370;BME280;20635;55.812;37.560;2023-03-20T14:21:09;99377.56;;;26.73;23.08
34370;BME280;20635;55.812;37.560;2023-03-20T14:23:44;99373.47;;;26.70;22.96
34370;BME280;20635;55.812;37.560;2023-03-20T14:26:22;99381.78;;;26.67;22.97
34370;BME280;20635;55.812;37.560;2023-03-20T14:31:24;99369.13;;;26.61;23.11
34370;BME280;20635;55.812;37.560;2023-03-20T14:33:56;99365.34;;;26.56;22.99
34370;BME280;20635;55.812;37.560;2023-03-20T14:36:27;99363.28;;;26.53;23.12
34370;BME280;20635;55.812;37.560;2023-03-20T14:46:40;99355.94;;;26.40;23.10
34370;BME280;20635;55.812;37.560;2023-03-20T14:49:18;99360.63;;;26.36;23.30
34370;BME280;20635;55.812;37.560;2023-03-20T14:51:47;99360.50;;;26.33;23.16
34370;BME280;20635;55.812;37.560;2023-03-20T14:56:47;99366.31;;;26.27;23.20
34370;BME280;20635;55.812;37.560;2023-03-20T14:59:15;99365.03;;;26.25;23.23
34370;BME280;20635;55.812;37.560;2023-03-20T15:04:08;99360.78;;;26.19;23.20
34370;BME280;20635;55.812;37.560;2023-03-20T15:06:41;99361.16;;;26.17;23.49
34370;BME280;20635;55.812;37.560;2023-03-20T15:09:08;99350.59;;;26.14;23.29
34370;BME280;20635;55.812;37.560;2023-03-20T15:11:35;99352.13;;;26.12;23.38
34370;BME280;20635;55.812;37.560;2023-03-20T15:14:01;99360.06;;;26.10;23.35
34370;BME280;20635;55.812;37.560;2023-03-20T15:16:30;99354.00;;;26.08;23.37
34370;BME280;20635;55.812;37.560;2023-03-20T15:18:57;99346.25;;;26.04;23.42
34370;BME280;20635;55.812;37.560;2023-03-20T15:23:58;99343.66;;;25.99;23.48
34370;BME280;20635;55.812;37.560;2023-03-20T15:26:24;99349.94;;;25.96;23.23
34370;BME280;20635;55.812;37.560;2023-03-20T15:28:51;99354.75;;;25.96;23.39
34370;BME280;20635;55.812;37.560;2023-03-20T15:31:22;99351.81;;;25.92;23.54
34370;BME280;20635;55.812;37.560;2023-03-20T15:33:48;99359.75;;;25.90;23.30
34370;BME280;20635;55.812;37.560;2023-03-20T15:36:19;99354.47;;;25.89;23.36